sensor_id;sensor_type;location;lat;lon;timestamp;pressure;altitude;pressure_sealevel;temperature
51693;BMP280;37777;53.066;21.638;2023-05-08T00:05:19;101939.88;;;4.93
51693;BMP280;37777;53.066;21.638;2023-05-08T00:12:21;101947.91;;;4.88
51693;BMP280;37777;53.066;21.638;2023-05-08T00:19:23;101946.00;;;4.79
51693;BMP280;37777;53.066;21.638;2023-05-08T00:26:25;101954.06;;;4.84
51693;BMP280;37777;53.066;21.638;2023-05-08T00:33:27;101957.78;;;4.78
51693;BMP280;37777;53.066;21.638;2023-05-08T00:40:29;101959.00;;;4.49
51693;BMP280;37777;53.066;21.638;2023-05-08T00:47:31;101949.81;;;4.35
51693;BMP280;37777;53.066;21.638;2023-05-08T00:54:35;101961.16;;;4.52
51693;BMP280;37777;53.066;21.638;2023-05-08T01:01:37;101956.13;;;4.18
51693;BMP280;37777;53.066;21.638;2023-05-08T01:08:43;101964.31;;;4.01
51693;BMP280;37777;53.066;21.638;2023-05-08T01:16:02;101978.38;;;3.86
51693;BMP280;37777;53.066;21.638;2023-05-08T01:23:16;101988.69;;;4.05
51693;BMP280;37777;53.066;21.638;2023-05-08T01:30:45;101993.97;;;3.95
51693;BMP280;37777;53.066;21.638;2023-05-08T01:37:57;101985.88;;;3.84
51693;BMP280;37777;53.066;21.638;2023-05-08T01:45:06;102004.84;;;3.55
51693;BMP280;37777;53.066;21.638;2023-05-08T01:52:28;101990.66;;;3.55
51693;BMP280;37777;53.066;21.638;2023-05-08T01:59:34;101998.72;;;3.55
51693;BMP280;37777;53.066;21.638;2023-05-08T02:06:37;102001.94;;;3.57
51693;BMP280;37777;53.066;21.638;2023-05-08T02:13:40;102007.00;;;3.53
51693;BMP280;37777;53.066;21.638;2023-05-08T02:20:43;102005.84;;;3.22
51693;BMP280;37777;53.066;21.638;2023-05-08T02:27:48;102003.84;;;3.34
51693;BMP280;37777;53.066;21.638;2023-05-08T02:34:52;102003.09;;;3.17
51693;BMP280;37777;53.066;21.638;2023-05-08T02:42:04;102013.94;;;3.27
51693;BMP280;37777;53.066;21.638;2023-05-08T02:49:26;102015.63;;;3.11
51693;BMP280;37777;53.066;21.638;2023-05-08T02:56:35;102016.75;;;3.15
51693;BMP280;37777;53.066;21.638;2023-05-08T03:03:40;102019.66;;;3.14
51693;BMP280;37777;53.066;21.638;2023-05-08T03:10:45;102028.41;;;3.09
51693;BMP280;37777;53.066;21.638;2023-05-08T03:18:01;102034.34;;;3.11
51693;BMP280;37777;53.066;21.638;2023-05-08T03:25:06;102028.50;;;3.14
51693;BMP280;37777;53.066;21.638;2023-05-08T03:32:10;102029.47;;;3.08
51693;BMP280;37777;53.066;21.638;2023-05-08T03:39:12;102021.88;;;3.44
51693;BMP280;37777;53.066;21.638;2023-05-08T03:46:15;102024.47;;;3.61
51693;BMP280;37777;53.066;21.638;2023-05-08T03:53:18;102043.66;;;4.07
51693;BMP280;37777;53.066;21.638;2023-05-08T04:00:31;102035.41;;;4.14
51693;BMP280;37777;53.066;21.638;2023-05-08T04:07:46;102039.66;;;4.43
51693;BMP280;37777;53.066;21.638;2023-05-08T04:14:51;102051.44;;;4.84
51693;BMP280;37777;53.066;21.638;2023-05-08T04:21:58;102059.09;;;5.13
51693;BMP280;37777;53.066;21.638;2023-05-08T04:29:06;102059.72;;;5.51
51693;BMP280;37777;53.066;21.638;2023-05-08T04:36:12;102067.88;;;5.92
51693;BMP280;37777;53.066;21.638;2023-05-08T04:43:15;102072.44;;;6.18
51693;BMP280;37777;53.066;21.638;2023-05-08T04:50:17;102083.44;;;6.47
51693;BMP280;37777;53.066;21.638;2023-05-08T04:57:19;102085.50;;;6.86
51693;BMP280;37777;53.066;21.638;2023-05-08T05:04:21;102089.72;;;7.08
51693;BMP280;37777;53.066;21.638;2023-05-08T05:11:23;102092.03;;;7.40
51693;BMP280;37777;53.066;21.638;2023-05-08T05:18:25;102099.56;;;7.83
51693;BMP280;37777;53.066;21.638;2023-05-08T05:25:28;102102.59;;;8.10
51693;BMP280;37777;53.066;21.638;2023-05-08T05:32:30;102109.84;;;8.39
51693;BMP280;37777;53.066;21.638;2023-05-08T05:39:32;102109.94;;;8.82
51693;BMP280;37777;53.066;21.638;2023-05-08T05:46:34;102116.63;;;9.09
51693;BMP280;37777;53.066;21.638;2023-05-08T05:53:36;102113.09;;;9.33
51693;BMP280;37777;53.066;21.638;2023-05-08T06:00:38;102114.38;;;9.54
51693;BMP280;37777;53.066;21.638;2023-05-08T06:07:41;102118.66;;;9.61
51693;BMP280;37777;53.066;21.638;2023-05-08T06:14:44;102126.94;;;9.83
51693;BMP280;37777;53.066;21.638;2023-05-08T06:21:45;102126.91;;;10.02
51693;BMP280;37777;53.066;21.638;2023-05-08T06:28:47;102125.94;;;10.12
51693;BMP280;37777;53.066;21.638;2023-05-08T06:35:49;102118.47;;;10.51
51693;BMP280;37777;53.066;21.638;2023-05-08T06:42:51;102119.88;;;10.76
51693;BMP280;37777;53.066;21.638;2023-05-08T06:49:53;102123.28;;;10.95
51693;BMP280;37777;53.066;21.638;2023-05-08T06:56:55;102127.63;;;11.19
51693;BMP280;37777;53.066;21.638;2023-05-08T07:03:57;102115.19;;;11.55
51693;BMP280;37777;53.066;21.638;2023-05-08T07:10:59;102115.72;;;11.65
51693;BMP280;37777;53.066;21.638;2023-05-08T07:18:01;102119.41;;;11.92
51693;BMP280;37777;53.066;21.638;2023-05-08T07:25:04;102119.84;;;12.17
51693;BMP280;37777;53.066;21.638;2023-05-08T07:32:06;102115.94;;;12.40
51693;BMP280;37777;53.066;21.638;2023-05-08T07:39:09;102107.72;;;12.63
51693;BMP280;37777;53.066;21.638;2023-05-08T07:46:17;102110.31;;;12.94
51693;BMP280;37777;53.066;21.638;2023-05-08T07:53:19;102116.22;;;13.14
51693;BMP280;37777;53.066;21.638;2023-05-08T08:00:21;102104.88;;;13.21
51693;BMP280;37777;53.066;21.638;2023-05-08T08:07:23;102103.41;;;13.41
51693;BMP280;37777;53.066;21.638;2023-05-08T08:14:25;102104.56;;;13.31
51693;BMP280;37777;53.066;21.638;2023-05-08T08:21:28;102107.44;;;13.26
51693;BMP280;37777;53.066;21.638;2023-05-08T08:28:30;102102.72;;;13.79
51693;BMP280;37777;53.066;21.638;2023-05-08T08:35:32;102107.03;;;13.71
51693;BMP280;37777;53.066;21.638;2023-05-08T08:42:34;102098.09;;;13.79
51693;BMP280;37777;53.066;21.638;2023-05-08T08:49:41;102099.84;;;14.14
51693;BMP280;37777;53.066;21.638;2023-05-08T08:56:48;102100.75;;;14.56
51693;BMP280;37777;53.066;21.638;2023-05-08T09:03:50;102094.28;;;14.61
51693;BMP280;37777;53.066;21.638;2023-05-08T09:10:54;102090.41;;;14.71
51693;BMP280;37777;53.066;21.638;2023-05-08T09:17:57;102091.91;;;15.01
51693;BMP280;37777;53.066;21.638;2023-05-08T09:24:59;102083.66;;;14.89
51693;BMP280;37777;53.066;21.638;2023-05-08T09:32:01;102075.97;;;14.70
51693;BMP280;37777;53.066;21.638;2023-05-08T09:39:03;102072.66;;;15.19
51693;BMP280;37777;53.066;21.638;2023-05-08T09:53:29;102073.25;;;15.25
51693;BMP280;37777;53.066;21.638;2023-05-08T10:00:37;102062.19;;;15.54
51693;BMP280;37777;53.066;21.638;2023-05-08T10:07:40;102063.50;;;15.36
51693;BMP280;37777;53.066;21.638;2023-05-08T10:14:42;102055.59;;;15.68
51693;BMP280;37777;53.066;21.638;2023-05-08T10:21:51;102046.72;;;15.71
51693;BMP280;37777;53.066;21.638;2023-05-08T10:29:17;102044.13;;;15.74
51693;BMP280;37777;53.066;21.638;2023-05-08T10:36:24;102033.94;;;16.12
51693;BMP280;37777;53.066;21.638;2023-05-08T10:43:29;102050.91;;;16.05
51693;BMP280;37777;53.066;21.638;2023-05-08T10:50:50;102034.91;;;15.91
51693;BMP280;37777;53.066;21.638;2023-05-08T10:58:33;102038.63;;;16.11
51693;BMP280;37777;53.066;21.638;2023-05-08T11:05:47;102024.28;;;15.90
51693;BMP280;37777;53.066;21.638;2023-05-08T11:12:50;102020.66;;;16.10
51693;BMP280;37777;53.066;21.638;2023-05-08T11:20:00;102020.44;;;16.44
51693;BMP280;37777;53.066;21.638;2023-05-08T11:27:02;102014.94;;;16.56
51693;BMP280;37777;53.066;21.638;2023-05-08T11:41:48;101999.34;;;16.28
51693;BMP280;37777;53.066;21.638;2023-05-08T11:48:57;101997.28;;;16.38
51693;BMP280;37777;53.066;21.638;2023-05-08T11:56:01;102002.69;;;16.09
51693;BMP280;37777;53.066;21.638;2023-05-08T12:03:05;101984.47;;;16.54
51693;BMP280;37777;53.066;21.638;2023-05-08T12:10:08;101978.22;;;16.53
51693;BMP280;37777;53.066;21.638;2023-05-08T12:17:15;101976.91;;;16.35
51693;BMP280;37777;53.066;21.638;2023-05-08T12:24:18;101971.44;;;16.63
51693;BMP280;37777;53.066;21.638;2023-05-08T12:31:24;101975.88;;;17.00
51693;BMP280;37777;53.066;21.638;2023-05-08T12:38:26;101976.56;;;17.12
51693;BMP280;37777;53.066;21.638;2023-05-08T12:45:31;101967.59;;;17.12
51693;BMP280;37777;53.066;21.638;2023-05-08T12:52:35;101976.31;;;17.34
51693;BMP280;37777;53.066;21.638;2023-05-08T12:59:37;101963.97;;;17.40
51693;BMP280;37777;53.066;21.638;2023-05-08T13:06:40;101964.88;;;17.63
51693;BMP280;37777;53.066;21.638;2023-05-08T13:13:41;101950.03;;;17.45
51693;BMP280;37777;53.066;21.638;2023-05-08T13:20:44;101951.28;;;17.47
51693;BMP280;37777;53.066;21.638;2023-05-08T13:27:47;101946.03;;;17.78
51693;BMP280;37777;53.066;21.638;2023-05-08T13:34:48;101949.34;;;17.87
51693;BMP280;37777;53.066;21.638;2023-05-08T13:41:55;101933.13;;;17.43
51693;BMP280;37777;53.066;21.638;2023-05-08T13:48:57;101937.13;;;17.45
51693;BMP280;37777;53.066;21.638;2023-05-08T13:55:59;101922.41;;;16.26
51693;BMP280;37777;53.066;21.638;2023-05-08T14:03:02;101917.47;;;16.60
51693;BMP280;37777;53.066;21.638;2023-05-08T14:10:05;101912.63;;;16.53
51693;BMP280;37777;53.066;21.638;2023-05-08T14:17:07;101904.56;;;16.45
51693;BMP280;37777;53.066;21.638;2023-05-08T14:24:10;101907.47;;;16.80
51693;BMP280;37777;53.066;21.638;2023-05-08T14:31:12;101903.56;;;16.97
51693;BMP280;37777;53.066;21.638;2023-05-08T14:38:14;101896.91;;;16.50
51693;BMP280;37777;53.066;21.638;2023-05-08T14:45:16;101900.97;;;17.20
51693;BMP280;37777;53.066;21.638;2023-05-08T14:52:18;101891.31;;;16.31
51693;BMP280;37777;53.066;21.638;2023-05-08T14:59:20;101905.91;;;16.51
51693;BMP280;37777;53.066;21.638;2023-05-08T15:06:23;101900.38;;;17.11
51693;BMP280;37777;53.066;21.638;2023-05-08T15:13:26;101901.78;;;17.21
51693;BMP280;37777;53.066;21.638;2023-05-08T15:20:28;101898.25;;;16.57
51693;BMP280;37777;53.066;21.638;2023-05-08T15:27:30;101896.78;;;16.75
51693;BMP280;37777;53.066;21.638;2023-05-08T15:34:32;101906.09;;;17.22
51693;BMP280;37777;53.066;21.638;2023-05-08T15:41:35;101892.53;;;16.93
51693;BMP280;37777;53.066;21.638;2023-05-08T15:48:38;101886.47;;;16.68
51693;BMP280;37777;53.066;21.638;2023-05-08T15:55:40;101891.19;;;17.19
51693;BMP280;37777;53.066;21.638;2023-05-08T16:02:42;101890.59;;;17.10
51693;BMP280;37777;53.066;21.638;2023-05-08T16:09:45;101875.59;;;17.04
51693;BMP280;37777;53.066;21.638;2023-05-08T16:16:47;101866.44;;;17.47
51693;BMP280;37777;53.066;21.638;2023-05-08T16:23:49;101872.41;;;17.73
51693;BMP280;37777;53.066;21.638;2023-05-08T16:30:51;101870.94;;;17.98
51693;BMP280;37777;53.066;21.638;2023-05-08T16:37:53;101871.00;;;18.21
51693;BMP280;37777;53.066;21.638;2023-05-08T16:44:56;101871.81;;;18.22
51693;BMP280;37777;53.066;21.638;2023-05-08T16:51:58;101875.97;;;18.35
51693;BMP280;37777;53.066;21.638;2023-05-08T16:59:00;101885.59;;;18.06
51693;BMP280;37777;53.066;21.638;2023-05-08T17:06:07;101886.44;;;18.10
51693;BMP280;37777;53.066;21.638;2023-05-08T17:13:09;101884.28;;;18.19
51693;BMP280;37777;53.066;21.638;2023-05-08T17:20:12;101883.72;;;17.91
51693;BMP280;37777;53.066;21.638;2023-05-08T17:27:14;101886.41;;;17.32
51693;BMP280;37777;53.066;21.638;2023-05-08T17:34:16;101884.00;;;16.79
51693;BMP280;37777;53.066;21.638;2023-05-08T17:41:18;101885.91;;;16.18
51693;BMP280;37777;53.066;21.638;2023-05-08T17:48:22;101895.84;;;15.70
51693;BMP280;37777;53.066;21.638;2023-05-08T17:55:24;101894.88;;;15.26
51693;BMP280;37777;53.066;21.638;2023-05-08T18:02:26;101899.16;;;14.90
51693;BMP280;37777;53.066;21.638;2023-05-08T18:09:28;101903.91;;;14.47
51693;BMP280;37777;53.066;21.638;2023-05-08T18:16:30;101918.97;;;14.11
51693;BMP280;37777;53.066;21.638;2023-05-08T18:23:33;101931.16;;;13.75
51693;BMP280;37777;53.066;21.638;2023-05-08T18:30:35;101930.38;;;13.45
51693;BMP280;37777;53.066;21.638;2023-05-08T18:37:41;101939.06;;;13.21
51693;BMP280;37777;53.066;21.638;2023-05-08T18:44:43;101940.09;;;12.72
51693;BMP280;37777;53.066;21.638;2023-05-08T18:51:45;101956.09;;;12.48
51693;BMP280;37777;53.066;21.638;2023-05-08T18:58:47;101957.38;;;12.41
51693;BMP280;37777;53.066;21.638;2023-05-08T19:05:49;101963.41;;;12.12
51693;BMP280;37777;53.066;21.638;2023-05-08T19:12:51;101973.88;;;11.96
51693;BMP280;37777;53.066;21.638;2023-05-08T19:19:54;101967.72;;;11.73
51693;BMP280;37777;53.066;21.638;2023-05-08T19:26:56;101967.00;;;11.50
51693;BMP280;37777;53.066;21.638;2023-05-08T19:33:59;101971.38;;;11.37
51693;BMP280;37777;53.066;21.638;2023-05-08T19:41:02;101965.44;;;11.04
51693;BMP280;37777;53.066;21.638;2023-05-08T19:48:04;101960.97;;;10.85
51693;BMP280;37777;53.066;21.638;2023-05-08T19:55:18;101956.28;;;10.54
51693;BMP280;37777;53.066;21.638;2023-05-08T20:02:21;101955.38;;;10.45
51693;BMP280;37777;53.066;21.638;2023-05-08T20:09:23;101946.28;;;10.27
51693;BMP280;37777;53.066;21.638;2023-05-08T20:16:25;101943.19;;;10.06
51693;BMP280;37777;53.066;21.638;2023-05-08T20:23:27;101951.09;;;9.88
51693;BMP280;37777;53.066;21.638;2023-05-08T20:30:29;101951.47;;;9.68
51693;BMP280;37777;53.066;21.638;2023-05-08T20:37:31;101956.47;;;9.61
51693;BMP280;37777;53.066;21.638;2023-05-08T20:44:33;101953.00;;;9.41
51693;BMP280;37777;53.066;21.638;2023-05-08T20:51:36;101957.69;;;9.35
51693;BMP280;37777;53.066;21.638;2023-05-08T20:58:38;101960.56;;;9.25
51693;BMP280;37777;53.066;21.638;2023-05-08T21:05:40;101951.91;;;9.09
51693;BMP280;37777;53.066;21.638;2023-05-08T21:12:42;101948.03;;;9.15
51693;BMP280;37777;53.066;21.638;2023-05-08T21:19:46;101958.69;;;9.07
51693;BMP280;37777;53.066;21.638;2023-05-08T21:26:48;101948.41;;;8.90
51693;BMP280;37777;53.066;21.638;2023-05-08T21:33:50;101956.25;;;8.67
51693;BMP280;37777;53.066;21.638;2023-05-08T21:40:53;101957.59;;;8.70
51693;BMP280;37777;53.066;21.638;2023-05-08T21:47:57;101947.03;;;8.54
51693;BMP280;37777;53.066;21.638;2023-05-08T21:54:59;101951.53;;;8.16
51693;BMP280;37777;53.066;21.638;2023-05-08T22:02:01;101951.97;;;8.23
51693;BMP280;37777;53.066;21.638;2023-05-08T22:09:03;101949.66;;;7.87
51693;BMP280;37777;53.066;21.638;2023-05-08T22:16:06;101954.56;;;7.80
51693;BMP280;37777;53.066;21.638;2023-05-08T22:23:09;101957.38;;;7.69
51693;BMP280;37777;53.066;21.638;2023-05-08T22:30:11;101955.03;;;7.57
51693;BMP280;37777;53.066;21.638;2023-05-08T22:37:13;101953.22;;;7.48
51693;BMP280;37777;53.066;21.638;2023-05-08T22:44:15;101943.63;;;7.36
51693;BMP280;37777;53.066;21.638;2023-05-08T22:51:17;101934.56;;;7.27
51693;BMP280;37777;53.066;21.638;2023-05-08T22:58:19;101939.50;;;7.15
51693;BMP280;37777;53.066;21.638;2023-05-08T23:05:22;101941.72;;;7.02
51693;BMP280;37777;53.066;21.638;2023-05-08T23:12:24;101943.88;;;7.00
51693;BMP280;37777;53.066;21.638;2023-05-08T23:19:26;101942.34;;;6.84
51693;BMP280;37777;53.066;21.638;2023-05-08T23:26:28;101947.25;;;6.72
51693;BMP280;37777;53.066;21.638;2023-05-08T23:33:30;101948.44;;;6.50
51693;BMP280;37777;53.066;21.638;2023-05-08T23:40:32;101947.06;;;6.58
51693;BMP280;37777;53.066;21.638;2023-05-08T23:47:34;101943.41;;;6.23
51693;BMP280;37777;53.066;21.638;2023-05-08T23:54:36;101930.81;;;6.08
